Terminal Aerodrome Forecast
Issued by NWS

Home | Current Version | Previous Version | Graphics & Text | Print | Product List | Glossary On
Versions: 1 2 3 4 5 6 7 8 9 10 11 12 13 14 15 16 17 18 19 20 21 22 23
594
FTUS43 KFGF 170614 AAB
TAFBJI
TAF AMD
KBJI 170614Z 1706/1806 09005KT P6SM RA OVC006
     FM171100 VRB03KT P6SM VCSH OVC005
     FM171500 35006KT P6SM OVC003
     FM171800 34009KT P6SM OVC010
     FM172100 35008KT P6SM BKN035=

USA.gov is the U.S. government's official web portal to all federal, state and local government web resources and services.